Preview of NWS' New Version of Forecast
This preview is not operational and should not be used for support decisions.

Terminal Aerodrome Forecast (TAF)

Issued by National Weather Service (NWS)

                            
000
FTUS46 KSEW 190520
TAFBLI
TAF
KBLI 190520Z 1906/2006 17006KT P6SM SKC
     FM191300 17006KT P6SM OVC025
     FM192000 17008KT P6SM SCT025
     FM200000 19004KT P6SM FEW030=